sensor_id;sensor_type;location;lat;lon;timestamp;P1;durP1;ratioP1;P2;durP2;ratioP2
57055;SDS011;42945;51.718;5.324;2023-05-23T00:05:40;23.23;;;12.65;;
57055;SDS011;42945;51.718;5.324;2023-05-23T00:11:28;24.77;;;12.67;;
57055;SDS011;42945;51.718;5.324;2023-05-23T00:17:17;21.42;;;11.15;;
57055;SDS011;42945;51.718;5.324;2023-05-23T00:23:09;27.33;;;11.95;;
57055;SDS011;42945;51.718;5.324;2023-05-23T00:28:59;22.90;;;12.65;;
57055;SDS011;42945;51.718;5.324;2023-05-23T00:34:47;23.27;;;9.57;;
57055;SDS011;42945;51.718;5.324;2023-05-23T00:40:35;26.20;;;11.57;;
57055;SDS011;42945;51.718;5.324;2023-05-23T00:46:22;25.60;;;12.90;;
57055;SDS011;42945;51.718;5.324;2023-05-23T00:52:11;26.48;;;11.63;;
57055;SDS011;42945;51.718;5.324;2023-05-23T00:57:59;27.33;;;12.05;;
57055;SDS011;42945;51.718;5.324;2023-05-23T01:03:48;28.08;;;12.70;;
57055;SDS011;42945;51.718;5.324;2023-05-23T01:09:36;30.50;;;12.88;;
57055;SDS011;42945;51.718;5.324;2023-05-23T01:15:28;31.88;;;10.68;;
57055;SDS011;42945;51.718;5.324;2023-05-23T01:21:22;31.85;;;13.02;;
57055;SDS011;42945;51.718;5.324;2023-05-23T01:27:22;35.30;;;14.18;;
57055;SDS011;42945;51.718;5.324;2023-05-23T01:33:32;34.40;;;13.38;;
57055;SDS011;42945;51.718;5.324;2023-05-23T01:39:22;36.47;;;13.23;;
57055;SDS011;42945;51.718;5.324;2023-05-23T01:48:59;40.85;;;13.55;;
57055;SDS011;42945;51.718;5.324;2023-05-23T01:54:50;41.55;;;15.27;;
57055;SDS011;42945;51.718;5.324;2023-05-23T02:00:39;31.35;;;13.45;;
57055;SDS011;42945;51.718;5.324;2023-05-23T02:06:27;41.20;;;14.85;;
57055;SDS011;42945;51.718;5.324;2023-05-23T02:12:14;37.13;;;13.38;;
57055;SDS011;42945;51.718;5.324;2023-05-23T02:18:02;32.53;;;11.13;;
57055;SDS011;42945;51.718;5.324;2023-05-23T02:23:51;24.00;;;9.20;;
57055;SDS011;42945;51.718;5.324;2023-05-23T02:29:39;12.38;;;5.97;;
57055;SDS011;42945;51.718;5.324;2023-05-23T02:35:27;11.32;;;5.72;;
57055;SDS011;42945;51.718;5.324;2023-05-23T02:41:15;11.43;;;5.68;;
57055;SDS011;42945;51.718;5.324;2023-05-23T02:47:02;11.68;;;5.85;;
57055;SDS011;42945;51.718;5.324;2023-05-23T02:52:50;12.32;;;5.97;;
57055;SDS011;42945;51.718;5.324;2023-05-23T02:58:38;8.18;;;4.63;;
57055;SDS011;42945;51.718;5.324;2023-05-23T03:04:26;8.75;;;5.18;;
57055;SDS011;42945;51.718;5.324;2023-05-23T03:10:13;11.13;;;6.07;;
57055;SDS011;42945;51.718;5.324;2023-05-23T03:16:01;10.23;;;5.47;;
57055;SDS011;42945;51.718;5.324;2023-05-23T03:21:50;13.70;;;6.18;;
57055;SDS011;42945;51.718;5.324;2023-05-23T03:27:38;18.05;;;6.60;;
57055;SDS011;42945;51.718;5.324;2023-05-23T03:33:26;20.42;;;6.82;;
57055;SDS011;42945;51.718;5.324;2023-05-23T03:39:13;10.88;;;6.68;;
57055;SDS011;42945;51.718;5.324;2023-05-23T03:45:02;17.23;;;6.35;;
57055;SDS011;42945;51.718;5.324;2023-05-23T03:50:49;16.30;;;7.30;;
57055;SDS011;42945;51.718;5.324;2023-05-23T03:56:37;19.63;;;7.35;;
57055;SDS011;42945;51.718;5.324;2023-05-23T04:02:25;19.02;;;7.65;;
57055;SDS011;42945;51.718;5.324;2023-05-23T04:08:13;21.38;;;8.68;;
57055;SDS011;42945;51.718;5.324;2023-05-23T04:14:02;18.58;;;7.03;;
57055;SDS011;42945;51.718;5.324;2023-05-23T04:19:50;30.75;;;9.38;;
57055;SDS011;42945;51.718;5.324;2023-05-23T04:25:38;30.02;;;10.40;;
57055;SDS011;42945;51.718;5.324;2023-05-23T04:31:26;30.98;;;10.32;;
57055;SDS011;42945;51.718;5.324;2023-05-23T04:37:14;33.20;;;11.20;;
57055;SDS011;42945;51.718;5.324;2023-05-23T04:43:04;27.08;;;8.75;;
57055;SDS011;42945;51.718;5.324;2023-05-23T04:52:40;29.23;;;8.55;;
57055;SDS011;42945;51.718;5.324;2023-05-23T04:58:28;29.00;;;9.88;;
57055;SDS011;42945;51.718;5.324;2023-05-23T05:04:17;29.27;;;8.85;;
57055;SDS011;42945;51.718;5.324;2023-05-23T05:10:06;27.40;;;8.93;;
57055;SDS011;42945;51.718;5.324;2023-05-23T05:15:55;23.13;;;7.70;;
57055;SDS011;42945;51.718;5.324;2023-05-23T05:21:43;25.13;;;7.78;;
57055;SDS011;42945;51.718;5.324;2023-05-23T05:27:31;21.90;;;6.95;;
57055;SDS011;42945;51.718;5.324;2023-05-23T05:33:18;21.40;;;6.15;;
57055;SDS011;42945;51.718;5.324;2023-05-23T05:39:10;16.08;;;5.72;;
57055;SDS011;42945;51.718;5.324;2023-05-23T05:45:00;12.70;;;5.05;;
57055;SDS011;42945;51.718;5.324;2023-05-23T05:54:49;17.98;;;4.57;;
57055;SDS011;42945;51.718;5.324;2023-05-23T06:00:36;13.00;;;4.07;;
57055;SDS011;42945;51.718;5.324;2023-05-23T06:06:28;14.73;;;5.03;;
57055;SDS011;42945;51.718;5.324;2023-05-23T06:12:16;19.35;;;5.20;;
57055;SDS011;42945;51.718;5.324;2023-05-23T06:18:03;16.30;;;5.55;;
57055;SDS011;42945;51.718;5.324;2023-05-23T06:23:51;22.25;;;5.72;;
57055;SDS011;42945;51.718;5.324;2023-05-23T06:29:40;19.70;;;5.20;;
57055;SDS011;42945;51.718;5.324;2023-05-23T06:35:28;20.10;;;5.00;;
57055;SDS011;42945;51.718;5.324;2023-05-23T06:41:18;19.70;;;4.95;;
57055;SDS011;42945;51.718;5.324;2023-05-23T06:47:06;18.50;;;4.68;;
57055;SDS011;42945;51.718;5.324;2023-05-23T06:56:50;17.85;;;5.05;;
57055;SDS011;42945;51.718;5.324;2023-05-23T07:02:38;11.55;;;4.55;;
57055;SDS011;42945;51.718;5.324;2023-05-23T07:08:26;12.25;;;4.47;;
57055;SDS011;42945;51.718;5.324;2023-05-23T07:14:14;14.93;;;4.47;;
57055;SDS011;42945;51.718;5.324;2023-05-23T07:20:02;14.68;;;4.82;;
57055;SDS011;42945;51.718;5.324;2023-05-23T07:25:51;16.45;;;4.57;;
57055;SDS011;42945;51.718;5.324;2023-05-23T07:31:39;19.30;;;5.45;;
57055;SDS011;42945;51.718;5.324;2023-05-23T07:37:27;14.60;;;5.68;;
57055;SDS011;42945;51.718;5.324;2023-05-23T07:43:15;20.35;;;6.00;;
57055;SDS011;42945;51.718;5.324;2023-05-23T07:49:04;16.42;;;5.97;;
57055;SDS011;42945;51.718;5.324;2023-05-23T07:54:51;17.02;;;5.53;;
57055;SDS011;42945;51.718;5.324;2023-05-23T08:00:39;17.80;;;4.95;;
57055;SDS011;42945;51.718;5.324;2023-05-23T08:06:28;11.27;;;4.13;;
57055;SDS011;42945;51.718;5.324;2023-05-23T08:12:15;13.35;;;4.10;;
57055;SDS011;42945;51.718;5.324;2023-05-23T08:18:03;13.50;;;4.47;;
57055;SDS011;42945;51.718;5.324;2023-05-23T08:23:53;12.07;;;4.70;;
57055;SDS011;42945;51.718;5.324;2023-05-23T08:29:41;15.20;;;4.25;;
57055;SDS011;42945;51.718;5.324;2023-05-23T08:35:30;14.75;;;3.63;;
57055;SDS011;42945;51.718;5.324;2023-05-23T08:41:22;13.57;;;2.58;;
57055;SDS011;42945;51.718;5.324;2023-05-23T08:47:12;11.90;;;1.70;;
57055;SDS011;42945;51.718;5.324;2023-05-23T08:53:04;14.23;;;2.33;;
57055;SDS011;42945;51.718;5.324;2023-05-23T08:58:56;15.50;;;2.33;;
57055;SDS011;42945;51.718;5.324;2023-05-23T09:04:45;14.00;;;2.40;;
57055;SDS011;42945;51.718;5.324;2023-05-23T09:10:35;9.33;;;2.30;;
57055;SDS011;42945;51.718;5.324;2023-05-23T09:16:30;17.05;;;2.53;;
57055;SDS011;42945;51.718;5.324;2023-05-23T09:22:23;13.45;;;2.70;;
57055;SDS011;42945;51.718;5.324;2023-05-23T09:28:13;10.23;;;1.92;;
57055;SDS011;42945;51.718;5.324;2023-05-23T09:34:02;13.07;;;2.22;;
57055;SDS011;42945;51.718;5.324;2023-05-23T09:39:51;11.60;;;1.77;;
57055;SDS011;42945;51.718;5.324;2023-05-23T09:45:40;11.00;;;2.53;;
57055;SDS011;42945;51.718;5.324;2023-05-23T09:51:28;13.05;;;2.40;;
57055;SDS011;42945;51.718;5.324;2023-05-23T10:01:03;12.63;;;2.25;;
57055;SDS011;42945;51.718;5.324;2023-05-23T10:06:58;14.17;;;2.17;;
57055;SDS011;42945;51.718;5.324;2023-05-23T10:12:51;15.77;;;2.53;;
57055;SDS011;42945;51.718;5.324;2023-05-23T10:18:43;12.50;;;1.73;;
57055;SDS011;42945;51.718;5.324;2023-05-23T10:24:34;11.80;;;2.28;;
57055;SDS011;42945;51.718;5.324;2023-05-23T10:30:26;13.03;;;2.30;;
57055;SDS011;42945;51.718;5.324;2023-05-23T10:36:21;10.20;;;2.47;;
57055;SDS011;42945;51.718;5.324;2023-05-23T10:42:30;10.18;;;2.63;;
57055;SDS011;42945;51.718;5.324;2023-05-23T10:48:31;13.23;;;2.55;;
57055;SDS011;42945;51.718;5.324;2023-05-23T10:54:22;7.95;;;1.67;;
57055;SDS011;42945;51.718;5.324;2023-05-23T11:04:10;9.57;;;2.17;;
57055;SDS011;42945;51.718;5.324;2023-05-23T11:10:17;14.18;;;2.58;;
57055;SDS011;42945;51.718;5.324;2023-05-23T11:16:29;14.87;;;2.83;;
57055;SDS011;42945;51.718;5.324;2023-05-23T11:22:19;13.50;;;2.10;;
57055;SDS011;42945;51.718;5.324;2023-05-23T11:28:09;17.70;;;2.53;;
57055;SDS011;42945;51.718;5.324;2023-05-23T11:33:59;8.65;;;1.48;;
57055;SDS011;42945;51.718;5.324;2023-05-23T11:39:47;10.65;;;2.03;;
57055;SDS011;42945;51.718;5.324;2023-05-23T11:45:37;10.50;;;2.00;;
57055;SDS011;42945;51.718;5.324;2023-05-23T11:51:26;11.43;;;2.20;;
57055;SDS011;42945;51.718;5.324;2023-05-23T11:57:15;10.25;;;2.15;;
57055;SDS011;42945;51.718;5.324;2023-05-23T12:07:04;11.98;;;2.17;;
57055;SDS011;42945;51.718;5.324;2023-05-23T12:12:53;11.10;;;2.00;;
57055;SDS011;42945;51.718;5.324;2023-05-23T12:18:41;10.02;;;1.70;;
57055;SDS011;42945;51.718;5.324;2023-05-23T12:24:30;11.52;;;2.33;;
57055;SDS011;42945;51.718;5.324;2023-05-23T12:30:18;17.20;;;2.33;;
57055;SDS011;42945;51.718;5.324;2023-05-23T12:36:07;13.70;;;2.10;;
57055;SDS011;42945;51.718;5.324;2023-05-23T12:42:06;10.43;;;1.63;;
57055;SDS011;42945;51.718;5.324;2023-05-23T12:47:57;10.18;;;1.73;;
57055;SDS011;42945;51.718;5.324;2023-05-23T12:53:45;13.18;;;2.83;;
57055;SDS011;42945;51.718;5.324;2023-05-23T12:59:34;11.00;;;1.98;;
57055;SDS011;42945;51.718;5.324;2023-05-23T13:09:24;9.98;;;1.95;;
57055;SDS011;42945;51.718;5.324;2023-05-23T13:15:13;14.30;;;2.17;;
57055;SDS011;42945;51.718;5.324;2023-05-23T13:21:01;10.23;;;1.67;;
57055;SDS011;42945;51.718;5.324;2023-05-23T13:26:49;10.63;;;1.80;;
57055;SDS011;42945;51.718;5.324;2023-05-23T13:32:37;7.50;;;1.95;;
57055;SDS011;42945;51.718;5.324;2023-05-23T13:38:25;12.20;;;1.50;;
57055;SDS011;42945;51.718;5.324;2023-05-23T13:44:14;8.38;;;2.13;;
57055;SDS011;42945;51.718;5.324;2023-05-23T13:50:03;8.65;;;1.30;;
57055;SDS011;42945;51.718;5.324;2023-05-23T13:55:51;9.35;;;2.03;;
57055;SDS011;42945;51.718;5.324;2023-05-23T14:01:40;10.57;;;2.10;;
57055;SDS011;42945;51.718;5.324;2023-05-23T14:11:21;6.80;;;1.50;;
57055;SDS011;42945;51.718;5.324;2023-05-23T14:17:15;4.85;;;1.50;;
57055;SDS011;42945;51.718;5.324;2023-05-23T14:23:04;9.13;;;1.40;;
57055;SDS011;42945;51.718;5.324;2023-05-23T14:28:52;9.38;;;2.03;;
57055;SDS011;42945;51.718;5.324;2023-05-23T14:35:06;10.55;;;1.95;;
57055;SDS011;42945;51.718;5.324;2023-05-23T14:40:55;11.00;;;2.05;;
57055;SDS011;42945;51.718;5.324;2023-05-23T14:46:45;8.18;;;1.80;;
57055;SDS011;42945;51.718;5.324;2023-05-23T14:52:37;12.70;;;1.92;;
57055;SDS011;42945;51.718;5.324;2023-05-23T14:58:24;10.13;;;1.27;;
57055;SDS011;42945;51.718;5.324;2023-05-23T15:04:12;10.43;;;2.03;;
57055;SDS011;42945;51.718;5.324;2023-05-23T15:14:01;9.50;;;1.85;;
57055;SDS011;42945;51.718;5.324;2023-05-23T15:19:52;9.20;;;2.40;;
57055;SDS011;42945;51.718;5.324;2023-05-23T15:25:40;12.30;;;2.23;;
57055;SDS011;42945;51.718;5.324;2023-05-23T15:31:29;8.93;;;2.03;;
57055;SDS011;42945;51.718;5.324;2023-05-23T15:37:17;8.73;;;2.33;;
57055;SDS011;42945;51.718;5.324;2023-05-23T15:43:04;11.38;;;2.08;;
57055;SDS011;42945;51.718;5.324;2023-05-23T15:48:51;8.40;;;1.63;;
57055;SDS011;42945;51.718;5.324;2023-05-23T15:54:39;8.70;;;1.85;;
57055;SDS011;42945;51.718;5.324;2023-05-23T16:00:28;10.45;;;2.30;;
57055;SDS011;42945;51.718;5.324;2023-05-23T16:06:17;10.98;;;1.80;;
57055;SDS011;42945;51.718;5.324;2023-05-23T16:16:01;9.95;;;1.95;;
57055;SDS011;42945;51.718;5.324;2023-05-23T16:21:50;8.75;;;1.83;;
57055;SDS011;42945;51.718;5.324;2023-05-23T16:27:37;7.30;;;1.92;;
57055;SDS011;42945;51.718;5.324;2023-05-23T16:33:26;9.20;;;1.40;;
57055;SDS011;42945;51.718;5.324;2023-05-23T16:39:14;4.63;;;1.25;;
57055;SDS011;42945;51.718;5.324;2023-05-23T16:45:02;8.05;;;1.40;;
57055;SDS011;42945;51.718;5.324;2023-05-23T16:50:52;10.90;;;1.80;;
57055;SDS011;42945;51.718;5.324;2023-05-23T16:56:41;8.77;;;1.95;;
57055;SDS011;42945;51.718;5.324;2023-05-23T17:02:29;10.68;;;1.65;;
57055;SDS011;42945;51.718;5.324;2023-05-23T17:08:17;7.85;;;1.70;;
57055;SDS011;42945;51.718;5.324;2023-05-23T17:18:01;29.17;;;1.60;;
57055;SDS011;42945;51.718;5.324;2023-05-23T17:23:48;8.80;;;1.63;;
57055;SDS011;42945;51.718;5.324;2023-05-23T17:29:36;7.05;;;1.60;;
57055;SDS011;42945;51.718;5.324;2023-05-23T17:35:27;11.05;;;1.83;;
57055;SDS011;42945;51.718;5.324;2023-05-23T17:41:16;8.52;;;1.67;;
57055;SDS011;42945;51.718;5.324;2023-05-23T17:47:03;4.10;;;1.05;;
57055;SDS011;42945;51.718;5.324;2023-05-23T17:52:52;7.93;;;1.48;;
57055;SDS011;42945;51.718;5.324;2023-05-23T17:58:40;10.00;;;1.60;;
57055;SDS011;42945;51.718;5.324;2023-05-23T18:04:28;9.52;;;1.63;;
57055;SDS011;42945;51.718;5.324;2023-05-23T18:10:16;8.32;;;1.70;;
57055;SDS011;42945;51.718;5.324;2023-05-23T18:19:52;8.88;;;1.63;;
57055;SDS011;42945;51.718;5.324;2023-05-23T18:25:40;5.95;;;1.50;;
57055;SDS011;42945;51.718;5.324;2023-05-23T18:31:29;8.32;;;1.20;;
57055;SDS011;42945;51.718;5.324;2023-05-23T18:37:17;11.40;;;1.80;;
57055;SDS011;42945;51.718;5.324;2023-05-23T18:43:05;7.18;;;1.67;;
57055;SDS011;42945;51.718;5.324;2023-05-23T18:48:54;10.57;;;1.52;;
57055;SDS011;42945;51.718;5.324;2023-05-23T18:54:44;12.15;;;1.88;;
57055;SDS011;42945;51.718;5.324;2023-05-23T19:00:32;11.13;;;1.63;;
57055;SDS011;42945;51.718;5.324;2023-05-23T19:06:19;13.93;;;2.00;;
57055;SDS011;42945;51.718;5.324;2023-05-23T19:12:08;11.48;;;1.55;;
57055;SDS011;42945;51.718;5.324;2023-05-23T19:14:34;10.88;;;1.38;;
57055;SDS011;42945;51.718;5.324;2023-05-23T19:20:22;10.70;;;1.92;;
57055;SDS011;42945;51.718;5.324;2023-05-23T19:26:11;6.23;;;1.63;;
57055;SDS011;42945;51.718;5.324;2023-05-23T19:31:59;12.52;;;1.50;;
57055;SDS011;42945;51.718;5.324;2023-05-23T19:37:48;11.00;;;1.73;;
57055;SDS011;42945;51.718;5.324;2023-05-23T19:43:35;13.02;;;1.50;;
57055;SDS011;42945;51.718;5.324;2023-05-23T19:49:22;12.02;;;1.60;;
57055;SDS011;42945;51.718;5.324;2023-05-23T19:55:11;10.32;;;1.50;;
57055;SDS011;42945;51.718;5.324;2023-05-23T20:00:59;12.98;;;1.77;;
57055;SDS011;42945;51.718;5.324;2023-05-23T20:06:47;9.35;;;1.65;;
57055;SDS011;42945;51.718;5.324;2023-05-23T20:12:35;10.65;;;1.70;;
57055;SDS011;42945;51.718;5.324;2023-05-23T20:22:19;8.48;;;1.80;;
57055;SDS011;42945;51.718;5.324;2023-05-23T20:28:07;11.90;;;1.90;;
57055;SDS011;42945;51.718;5.324;2023-05-23T20:33:55;15.02;;;2.05;;
57055;SDS011;42945;51.718;5.324;2023-05-23T20:39:43;14.40;;;1.75;;
57055;SDS011;42945;51.718;5.324;2023-05-23T20:45:34;10.85;;;2.10;;
57055;SDS011;42945;51.718;5.324;2023-05-23T20:51:22;14.05;;;2.35;;
57055;SDS011;42945;51.718;5.324;2023-05-23T20:57:10;8.00;;;1.67;;
57055;SDS011;42945;51.718;5.324;2023-05-23T21:02:57;17.58;;;2.10;;
57055;SDS011;42945;51.718;5.324;2023-05-23T21:08:46;9.55;;;1.85;;
57055;SDS011;42945;51.718;5.324;2023-05-23T21:14:35;12.57;;;2.03;;
57055;SDS011;42945;51.718;5.324;2023-05-23T21:23:57;14.25;;;2.08;;
57055;SDS011;42945;51.718;5.324;2023-05-23T21:29:46;10.95;;;2.20;;
57055;SDS011;42945;51.718;5.324;2023-05-23T21:35:34;12.82;;;2.45;;
57055;SDS011;42945;51.718;5.324;2023-05-23T21:41:24;15.70;;;2.65;;
57055;SDS011;42945;51.718;5.324;2023-05-23T21:47:14;16.20;;;2.20;;
57055;SDS011;42945;51.718;5.324;2023-05-23T21:53:02;15.25;;;2.70;;
57055;SDS011;42945;51.718;5.324;2023-05-23T21:58:50;13.30;;;2.22;;
57055;SDS011;42945;51.718;5.324;2023-05-23T22:04:40;15.07;;;2.88;;
57055;SDS011;42945;51.718;5.324;2023-05-23T22:10:27;15.80;;;2.03;;
57055;SDS011;42945;51.718;5.324;2023-05-23T22:16:14;12.15;;;2.10;;
57055;SDS011;42945;51.718;5.324;2023-05-23T22:25:49;19.45;;;2.58;;
57055;SDS011;42945;51.718;5.324;2023-05-23T22:31:37;13.73;;;2.35;;
57055;SDS011;42945;51.718;5.324;2023-05-23T22:37:25;13.05;;;2.05;;
57055;SDS011;42945;51.718;5.324;2023-05-23T22:43:13;10.40;;;1.65;;
57055;SDS011;42945;51.718;5.324;2023-05-23T22:49:00;15.30;;;2.40;;
57055;SDS011;42945;51.718;5.324;2023-05-23T22:54:49;12.60;;;2.95;;
57055;SDS011;42945;51.718;5.324;2023-05-23T23:00:38;10.48;;;2.30;;
57055;SDS011;42945;51.718;5.324;2023-05-23T23:06:25;11.15;;;2.22;;
57055;SDS011;42945;51.718;5.324;2023-05-23T23:12:15;13.88;;;2.42;;
57055;SDS011;42945;51.718;5.324;2023-05-23T23:18:03;11.68;;;2.22;;
57055;SDS011;42945;51.718;5.324;2023-05-23T23:23:51;20.42;;;3.03;;
57055;SDS011;42945;51.718;5.324;2023-05-23T23:29:40;16.80;;;2.60;;
57055;SDS011;42945;51.718;5.324;2023-05-23T23:35:27;15.18;;;2.78;;
57055;SDS011;42945;51.718;5.324;2023-05-23T23:41:15;11.68;;;2.38;;
57055;SDS011;42945;51.718;5.324;2023-05-23T23:47:03;17.80;;;2.70;;
57055;SDS011;42945;51.718;5.324;2023-05-23T23:52:52;15.75;;;2.78;;
57055;SDS011;42945;51.718;5.324;2023-05-23T23:58:40;15.45;;;2.75;;
